createdAt,value
2022-10-09T00:00:06.279Z,100.00
2022-10-09T00:05:15.441Z,100.00
2022-10-09T00:10:19.356Z,100.00
2022-10-09T00:15:24.588Z,100.00
2022-10-09T00:20:28.374Z,100.00
2022-10-09T00:25:32.230Z,100.00
2022-10-09T00:30:40.342Z,100.00
2022-10-09T00:35:44.236Z,100.00
2022-10-09T00:40:48.012Z,100.00
2022-10-09T00:45:57.635Z,100.00
2022-10-09T00:51:03.171Z,100.00
2022-10-09T00:56:07.317Z,100.00
2022-10-09T01:01:12.414Z,100.00
2022-10-09T01:06:21.520Z,100.00
2022-10-09T01:11:35.762Z,100.00
2022-10-09T01:16:46.564Z,100.00
2022-10-09T01:21:59.260Z,100.00
2022-10-09T01:27:12.066Z,100.00
2022-10-09T01:32:19.807Z,100.00
2022-10-09T01:37:24.376Z,100.00
2022-10-09T01:42:30.824Z,100.00
2022-10-09T01:47:34.719Z,100.00
2022-10-09T01:52:45.200Z,100.00
2022-10-09T01:57:54.723Z,100.00
2022-10-09T02:02:59.078Z,100.00
2022-10-09T02:08:03.515Z,100.00
2022-10-09T02:13:08.832Z,100.00
2022-10-09T02:18:16.035Z,100.00
2022-10-09T02:23:22.752Z,100.00
2022-10-09T02:28:27.958Z,100.00
2022-10-09T02:33:33.303Z,100.00
2022-10-09T02:38:37.077Z,100.00
2022-10-09T02:43:42.158Z,100.00
2022-10-09T02:48:46.398Z,100.00
2022-10-09T02:53:52.228Z,100.00
2022-10-09T02:58:57.548Z,100.00
2022-10-09T03:04:01.675Z,100.00
2022-10-09T03:09:05.534Z,100.00
2022-10-09T03:14:11.292Z,100.00
2022-10-09T03:19:15.033Z,100.00
2022-10-09T03:24:18.807Z,100.00
2022-10-09T03:29:24.043Z,100.00
2022-10-09T03:34:27.732Z,100.00
2022-10-09T03:39:31.593Z,100.00
2022-10-09T03:44:36.654Z,100.00
2022-10-09T03:49:40.388Z,100.00
2022-10-09T03:54:44.112Z,100.00
2022-10-09T03:59:49.209Z,100.00
2022-10-09T04:04:52.950Z,100.00
2022-10-09T04:09:56.733Z,100.00
2022-10-09T04:15:01.892Z,100.00
2022-10-09T04:20:06.051Z,100.00
2022-10-09T04:25:10.493Z,100.00
2022-10-09T04:30:15.854Z,100.00
2022-10-09T04:35:19.634Z,100.00
2022-10-09T04:40:23.350Z,100.00
2022-10-09T04:45:28.500Z,100.00
2022-10-09T04:50:32.235Z,100.00
2022-10-09T04:55:40.190Z,100.00
2022-10-09T05:00:46.860Z,100.00
2022-10-09T05:05:50.705Z,100.00
2022-10-09T05:10:54.443Z,100.00
2022-10-09T05:16:02.428Z,100.00
2022-10-09T05:21:06.697Z,100.00
2022-10-09T05:26:14.234Z,100.00
2022-10-09T05:31:22.344Z,100.00
2022-10-09T05:36:26.133Z,100.00
2022-10-09T05:41:30.495Z,100.00
2022-10-09T05:46:36.099Z,100.00
2022-10-09T05:51:42.696Z,100.00
2022-10-09T05:56:46.541Z,100.00
2022-10-09T06:01:54.541Z,100.00
2022-10-09T06:06:58.438Z,100.00
2022-10-09T06:12:02.188Z,100.00
2022-10-09T06:17:07.245Z,100.00
2022-10-09T06:22:10.958Z,100.00
2022-10-09T06:27:14.737Z,100.00
2022-10-09T06:32:19.828Z,100.00
2022-10-09T06:37:23.670Z,100.00
2022-10-09T06:42:27.383Z,100.00
2022-10-09T06:47:34.950Z,100.00
2022-10-09T06:52:38.805Z,100.00
2022-10-09T06:57:42.726Z,100.00
2022-10-09T07:02:48.207Z,100.00
2022-10-09T07:07:52.164Z,100.00
2022-10-09T07:12:55.979Z,100.00
2022-10-09T07:18:03.559Z,100.00
2022-10-09T07:23:10.092Z,100.00
2022-10-09T07:28:13.950Z,100.00
2022-10-09T07:33:19.050Z,100.00
2022-10-09T07:38:22.926Z,100.00
2022-10-09T07:43:29.719Z,100.00
2022-10-09T07:48:35.342Z,100.00
2022-10-09T07:53:39.661Z,100.00
2022-10-09T07:58:43.609Z,100.00
2022-10-09T08:03:49.327Z,100.00
2022-10-09T08:08:54.491Z,100.00
2022-10-09T08:13:58.988Z,100.00
2022-10-09T08:19:04.893Z,100.00
2022-10-09T08:24:08.701Z,100.00
2022-10-09T08:29:17.060Z,100.00
2022-10-09T08:34:22.100Z,100.00
2022-10-09T08:39:29.514Z,100.00
2022-10-09T08:44:39.479Z,100.00
2022-10-09T08:49:51.474Z,100.00
2022-10-09T08:54:58.291Z,100.00
2022-10-09T09:00:02.110Z,100.00
2022-10-09T09:05:20.618Z,100.00
2022-10-09T09:10:32.438Z,100.00
2022-10-09T09:15:48.090Z,100.00
2022-10-09T09:20:55.620Z,100.00
2022-10-09T09:25:59.945Z,100.00
2022-10-09T09:31:09.623Z,100.00
2022-10-09T09:36:23.343Z,100.00
2022-10-09T09:41:28.976Z,100.00
2022-10-09T09:46:33.744Z,100.00
2022-10-09T09:51:38.913Z,100.00
2022-10-09T10:02:14.398Z,100.00
2022-10-09T10:07:30.217Z,100.00
2022-10-09T10:12:34.275Z,100.00
2022-10-09T10:17:38.635Z,100.00
2022-10-09T10:22:51.709Z,100.00
2022-10-09T10:28:01.838Z,100.00
2022-10-09T10:33:15.335Z,90.21
2022-10-09T10:38:26.584Z,73.91
2022-10-09T10:43:36.951Z,69.57
2022-10-09T10:48:42.889Z,62.73
2022-10-09T10:54:02.518Z,60.16
2022-10-09T10:59:26.212Z,56.53
2022-10-09T11:04:44.248Z,55.55
2022-10-09T11:09:59.098Z,54.39
2022-10-09T11:15:13.607Z,48.43
2022-10-09T11:20:40.184Z,48.34
2022-10-09T11:25:55.236Z,44.65
2022-10-09T11:31:05.149Z,45.02
2022-10-09T11:36:17.202Z,44.25
2022-10-09T11:41:22.953Z,43.02
2022-10-09T11:46:41.430Z,42.03
2022-10-09T11:51:51.811Z,39.63
2022-10-09T11:56:59.220Z,40.10
2022-10-09T12:02:22.994Z,39.80
2022-10-09T12:07:33.189Z,39.00
2022-10-09T12:12:38.996Z,39.50
2022-10-09T12:17:49.852Z,39.43
2022-10-09T12:23:21.716Z,38.89
2022-10-09T12:28:29.112Z,37.78
2022-10-09T12:33:37.861Z,36.38
2022-10-09T12:38:42.456Z,36.15
2022-10-09T12:43:49.121Z,36.18
2022-10-09T12:48:53.094Z,35.68
2022-10-09T12:53:57.077Z,35.65
2022-10-09T12:59:03.140Z,34.54
2022-10-09T13:04:09.457Z,34.09
2022-10-09T13:09:21.432Z,33.25
2022-10-09T13:14:29.624Z,32.21
2022-10-09T13:19:35.357Z,32.67
2022-10-09T13:24:39.192Z,32.10
2022-10-09T13:29:44.763Z,32.15
2022-10-09T13:34:48.529Z,32.02
2022-10-09T13:39:53.577Z,30.86
2022-10-09T13:44:58.814Z,30.99
2022-10-09T13:50:02.632Z,30.68
2022-10-09T13:55:07.309Z,30.64
2022-10-09T14:00:13.815Z,30.49
2022-10-09T14:05:17.781Z,29.17
2022-10-09T14:10:23.882Z,29.18
2022-10-09T14:15:29.277Z,28.49
2022-10-09T14:20:33.339Z,28.89
2022-10-09T14:25:37.221Z,28.90
2022-10-09T14:30:42.922Z,29.14
2022-10-09T14:35:46.758Z,28.20
2022-10-09T14:40:50.569Z,28.72
2022-10-09T14:46:04.121Z,28.90
2022-10-09T14:51:11.379Z,28.17
2022-10-09T14:56:17.365Z,28.78
2022-10-09T15:01:23.511Z,29.66
2022-10-09T15:06:28.214Z,29.62
2022-10-09T15:11:31.908Z,30.65
2022-10-09T15:16:37.318Z,31.09
2022-10-09T15:21:41.352Z,30.83
2022-10-09T15:26:45.023Z,30.68
2022-10-09T15:31:51.876Z,30.83
2022-10-09T15:36:55.669Z,31.85
2022-10-09T15:41:59.365Z,32.92
2022-10-09T15:47:04.488Z,36.17
2022-10-09T15:52:08.268Z,38.08
2022-10-09T15:57:12.029Z,38.37
2022-10-09T16:02:17.236Z,40.03
2022-10-09T16:07:20.980Z,41.90
2022-10-09T16:12:24.692Z,42.64
2022-10-09T16:17:29.777Z,43.42
2022-10-09T16:22:33.788Z,44.68
2022-10-09T16:27:37.656Z,46.63
2022-10-09T16:32:42.764Z,47.34
2022-10-09T16:37:46.605Z,48.86
2022-10-09T16:42:52.829Z,50.09
2022-10-09T16:48:01.469Z,51.03
2022-10-09T16:53:05.396Z,53.36
2022-10-09T16:58:09.252Z,54.88
2022-10-09T17:03:14.280Z,56.94
2022-10-09T17:08:18.105Z,58.82
2022-10-09T17:13:21.970Z,60.31
2022-10-09T17:18:27.100Z,62.19
2022-10-09T17:23:30.955Z,65.77
2022-10-09T17:28:35.453Z,70.45
2022-10-09T17:33:42.799Z,72.09
2022-10-09T17:38:47.304Z,74.13
2022-10-09T17:43:52.311Z,76.14
2022-10-09T17:48:58.506Z,76.86
2022-10-09T17:54:05.972Z,78.25
2022-10-09T17:59:13.943Z,78.74
2022-10-09T18:04:19.013Z,81.19
2022-10-09T18:09:22.871Z,84.08
2022-10-09T18:14:26.632Z,83.26
2022-10-09T18:19:31.817Z,85.53
2022-10-09T18:24:35.642Z,84.92
2022-10-09T18:29:39.401Z,83.40
2022-10-09T18:34:46.595Z,84.13
2022-10-09T18:39:50.727Z,83.99
2022-10-09T18:44:54.602Z,83.29
2022-10-09T18:50:01.799Z,83.61
2022-10-09T18:55:08.508Z,88.11
2022-10-09T19:00:13.853Z,86.21
2022-10-09T19:05:19.102Z,85.95
2022-10-09T19:10:23.088Z,84.29
2022-10-09T19:15:26.787Z,88.12
2022-10-09T19:20:32.398Z,93.04
2022-10-09T19:25:36.214Z,93.86
2022-10-09T19:30:40.356Z,92.76
2022-10-09T19:35:50.113Z,93.75
2022-10-09T19:40:54.438Z,96.67
2022-10-09T19:46:02.772Z,98.28
2022-10-09T19:51:10.353Z,99.97
2022-10-09T19:56:15.843Z,100.00
2022-10-09T20:01:21.339Z,100.00
2022-10-09T20:06:27.305Z,100.00
2022-10-09T20:11:31.028Z,100.00
2022-10-09T20:16:34.979Z,100.00
2022-10-09T20:21:40.215Z,100.00
2022-10-09T20:26:44.047Z,100.00
2022-10-09T20:31:48.794Z,100.00
2022-10-09T20:36:54.427Z,100.00
2022-10-09T20:41:59.619Z,100.00
2022-10-09T20:47:03.497Z,100.00
2022-10-09T20:52:08.642Z,100.00
2022-10-09T20:57:12.357Z,100.00
2022-10-09T21:02:16.676Z,100.00
2022-10-09T21:07:21.835Z,100.00
2022-10-09T21:12:25.582Z,100.00
2022-10-09T21:17:29.365Z,100.00
2022-10-09T21:22:34.793Z,100.00
2022-10-09T21:27:38.579Z,100.00
2022-10-09T21:32:44.565Z,100.00
2022-10-09T21:37:50.377Z,100.00
2022-10-09T21:42:54.044Z,100.00
2022-10-09T21:47:57.918Z,100.00
2022-10-09T21:53:03.223Z,100.00
2022-10-09T21:58:08.108Z,100.00
2022-10-09T22:03:11.836Z,100.00
2022-10-09T22:08:16.913Z,100.00
2022-10-09T22:13:21.740Z,100.00
2022-10-09T22:18:25.508Z,100.00
2022-10-09T22:23:30.717Z,100.00
2022-10-09T22:28:35.400Z,100.00
2022-10-09T22:33:39.331Z,100.00
2022-10-09T22:38:45.751Z,100.00
2022-10-09T22:43:51.205Z,100.00
2022-10-09T22:48:55.066Z,100.00
2022-10-09T22:54:00.836Z,100.00
2022-10-09T22:59:05.445Z,100.00
2022-10-09T23:04:13.047Z,100.00
2022-10-09T23:09:19.004Z,100.00
2022-10-09T23:14:22.717Z,100.00
2022-10-09T23:19:26.432Z,100.00
2022-10-09T23:24:31.484Z,100.00
2022-10-09T23:29:35.279Z,100.00
2022-10-09T23:34:39.034Z,100.00
2022-10-09T23:39:44.115Z,100.00
2022-10-09T23:44:47.826Z,100.00
2022-10-09T23:49:51.575Z,100.00
2022-10-09T23:54:56.616Z,100.00
